sensor_id;sensor_type;location;lat;lon;timestamp;P1;durP1;ratioP1;P2;durP2;ratioP2
18090;SDS011;9172;49.948;9.208;2022-12-07T00:02:31;13.97;;;7.33;;
18090;SDS011;9172;49.948;9.208;2022-12-07T00:04:59;11.50;;;6.37;;
18090;SDS011;9172;49.948;9.208;2022-12-07T00:07:31;14.03;;;6.97;;
18090;SDS011;9172;49.948;9.208;2022-12-07T00:10:03;14.20;;;6.50;;
18090;SDS011;9172;49.948;9.208;2022-12-07T00:12:33;14.63;;;6.90;;
18090;SDS011;9172;49.948;9.208;2022-12-07T00:15:04;14.73;;;6.87;;
18090;SDS011;9172;49.948;9.208;2022-12-07T00:17:35;16.00;;;7.13;;
18090;SDS011;9172;49.948;9.208;2022-12-07T00:20:06;12.43;;;6.93;;
18090;SDS011;9172;49.948;9.208;2022-12-07T00:22:35;12.87;;;6.67;;
18090;SDS011;9172;49.948;9.208;2022-12-07T00:25:04;14.00;;;6.90;;
18090;SDS011;9172;49.948;9.208;2022-12-07T00:27:33;15.27;;;7.23;;
18090;SDS011;9172;49.948;9.208;2022-12-07T00:30:02;14.83;;;7.70;;
18090;SDS011;9172;49.948;9.208;2022-12-07T00:32:33;15.60;;;6.50;;
18090;SDS011;9172;49.948;9.208;2022-12-07T00:35:03;11.10;;;6.33;;
18090;SDS011;9172;49.948;9.208;2022-12-07T00:37:32;12.03;;;6.90;;
18090;SDS011;9172;49.948;9.208;2022-12-07T00:40:02;16.90;;;7.33;;
18090;SDS011;9172;49.948;9.208;2022-12-07T00:42:31;12.87;;;7.20;;
18090;SDS011;9172;49.948;9.208;2022-12-07T00:45:00;16.23;;;7.53;;
18090;SDS011;9172;49.948;9.208;2022-12-07T00:47:30;13.23;;;7.07;;
18090;SDS011;9172;49.948;9.208;2022-12-07T00:50:08;15.77;;;7.70;;
18090;SDS011;9172;49.948;9.208;2022-12-07T00:52:38;12.17;;;7.00;;
18090;SDS011;9172;49.948;9.208;2022-12-07T00:55:07;15.17;;;7.70;;
18090;SDS011;9172;49.948;9.208;2022-12-07T00:57:37;15.47;;;7.50;;
18090;SDS011;9172;49.948;9.208;2022-12-07T01:00:07;14.43;;;7.13;;
18090;SDS011;9172;49.948;9.208;2022-12-07T01:02:37;14.07;;;7.00;;
18090;SDS011;9172;49.948;9.208;2022-12-07T01:05:06;13.00;;;6.83;;
18090;SDS011;9172;49.948;9.208;2022-12-07T01:07:35;13.87;;;7.20;;
18090;SDS011;9172;49.948;9.208;2022-12-07T01:10:05;15.33;;;7.40;;
18090;SDS011;9172;49.948;9.208;2022-12-07T01:12:36;14.17;;;7.53;;
18090;SDS011;9172;49.948;9.208;2022-12-07T01:15:07;11.93;;;6.43;;
18090;SDS011;9172;49.948;9.208;2022-12-07T01:17:39;16.07;;;7.90;;
18090;SDS011;9172;49.948;9.208;2022-12-07T01:20:09;12.33;;;7.03;;
18090;SDS011;9172;49.948;9.208;2022-12-07T01:22:43;14.53;;;7.57;;
18090;SDS011;9172;49.948;9.208;2022-12-07T01:25:11;11.87;;;6.80;;
18090;SDS011;9172;49.948;9.208;2022-12-07T01:27:41;14.10;;;8.00;;
18090;SDS011;9172;49.948;9.208;2022-12-07T01:30:11;14.43;;;6.97;;
18090;SDS011;9172;49.948;9.208;2022-12-07T01:32:41;18.13;;;8.73;;
18090;SDS011;9172;49.948;9.208;2022-12-07T01:35:10;17.13;;;7.67;;
18090;SDS011;9172;49.948;9.208;2022-12-07T01:37:39;15.27;;;7.63;;
18090;SDS011;9172;49.948;9.208;2022-12-07T01:40:09;16.90;;;7.50;;
18090;SDS011;9172;49.948;9.208;2022-12-07T01:42:39;16.83;;;8.77;;
18090;SDS011;9172;49.948;9.208;2022-12-07T01:48:16;16.30;;;8.27;;
18090;SDS011;9172;49.948;9.208;2022-12-07T01:50:50;18.43;;;8.17;;
18090;SDS011;9172;49.948;9.208;2022-12-07T01:53:21;17.90;;;9.07;;
18090;SDS011;9172;49.948;9.208;2022-12-07T01:55:51;16.70;;;8.10;;
18090;SDS011;9172;49.948;9.208;2022-12-07T01:58:22;15.10;;;7.37;;
18090;SDS011;9172;49.948;9.208;2022-12-07T02:00:52;19.00;;;7.47;;
18090;SDS011;9172;49.948;9.208;2022-12-07T02:03:25;17.03;;;8.50;;
18090;SDS011;9172;49.948;9.208;2022-12-07T02:05:56;16.53;;;7.93;;
18090;SDS011;9172;49.948;9.208;2022-12-07T02:08:27;15.13;;;7.67;;
18090;SDS011;9172;49.948;9.208;2022-12-07T02:10:56;17.53;;;8.40;;
18090;SDS011;9172;49.948;9.208;2022-12-07T02:13:27;19.00;;;8.80;;
18090;SDS011;9172;49.948;9.208;2022-12-07T02:16:02;14.53;;;8.20;;
18090;SDS011;9172;49.948;9.208;2022-12-07T02:18:47;17.57;;;8.53;;
18090;SDS011;9172;49.948;9.208;2022-12-07T02:21:23;18.50;;;8.27;;
18090;SDS011;9172;49.948;9.208;2022-12-07T02:23:58;16.23;;;7.53;;
18090;SDS011;9172;49.948;9.208;2022-12-07T02:26:45;16.47;;;8.53;;
18090;SDS011;9172;49.948;9.208;2022-12-07T02:29:24;18.73;;;8.27;;
18090;SDS011;9172;49.948;9.208;2022-12-07T02:31:56;13.13;;;7.20;;
18090;SDS011;9172;49.948;9.208;2022-12-07T02:34:31;18.90;;;8.67;;
18090;SDS011;9172;49.948;9.208;2022-12-07T02:37:06;16.33;;;8.63;;
18090;SDS011;9172;49.948;9.208;2022-12-07T02:39:39;18.17;;;8.60;;
18090;SDS011;9172;49.948;9.208;2022-12-07T02:42:12;16.40;;;8.93;;
18090;SDS011;9172;49.948;9.208;2022-12-07T02:44:44;17.90;;;8.43;;
18090;SDS011;9172;49.948;9.208;2022-12-07T02:47:14;15.93;;;8.27;;
18090;SDS011;9172;49.948;9.208;2022-12-07T02:49:45;18.00;;;8.03;;
18090;SDS011;9172;49.948;9.208;2022-12-07T02:52:16;15.67;;;7.43;;
18090;SDS011;9172;49.948;9.208;2022-12-07T02:54:46;18.53;;;8.50;;
18090;SDS011;9172;49.948;9.208;2022-12-07T02:57:20;20.57;;;8.60;;
18090;SDS011;9172;49.948;9.208;2022-12-07T02:59:57;14.40;;;7.67;;
18090;SDS011;9172;49.948;9.208;2022-12-07T03:02:31;15.57;;;8.47;;
18090;SDS011;9172;49.948;9.208;2022-12-07T03:05:05;17.27;;;8.47;;
18090;SDS011;9172;49.948;9.208;2022-12-07T03:07:49;17.20;;;7.97;;
18090;SDS011;9172;49.948;9.208;2022-12-07T03:10:22;18.20;;;9.10;;
18090;SDS011;9172;49.948;9.208;2022-12-07T03:12:54;18.33;;;8.80;;
18090;SDS011;9172;49.948;9.208;2022-12-07T03:15:27;15.00;;;7.90;;
18090;SDS011;9172;49.948;9.208;2022-12-07T03:17:58;17.30;;;8.77;;
18090;SDS011;9172;49.948;9.208;2022-12-07T03:20:29;18.87;;;9.50;;
18090;SDS011;9172;49.948;9.208;2022-12-07T03:23:03;18.57;;;8.70;;
18090;SDS011;9172;49.948;9.208;2022-12-07T03:25:35;15.30;;;8.33;;
18090;SDS011;9172;49.948;9.208;2022-12-07T03:28:07;17.47;;;9.10;;
18090;SDS011;9172;49.948;9.208;2022-12-07T03:30:39;19.63;;;9.67;;
18090;SDS011;9172;49.948;9.208;2022-12-07T03:33:10;16.03;;;8.83;;
18090;SDS011;9172;49.948;9.208;2022-12-07T03:35:42;21.47;;;9.17;;
18090;SDS011;9172;49.948;9.208;2022-12-07T03:38:15;18.90;;;8.93;;
18090;SDS011;9172;49.948;9.208;2022-12-07T03:40:54;16.63;;;8.13;;
18090;SDS011;9172;49.948;9.208;2022-12-07T03:43:24;18.47;;;8.37;;
18090;SDS011;9172;49.948;9.208;2022-12-07T03:46:08;17.13;;;8.17;;
18090;SDS011;9172;49.948;9.208;2022-12-07T03:48:40;19.90;;;8.70;;
18090;SDS011;9172;49.948;9.208;2022-12-07T03:51:11;21.27;;;8.23;;
18090;SDS011;9172;49.948;9.208;2022-12-07T03:53:46;16.37;;;8.83;;
18090;SDS011;9172;49.948;9.208;2022-12-07T03:56:17;17.40;;;9.03;;
18090;SDS011;9172;49.948;9.208;2022-12-07T03:58:47;17.87;;;8.57;;
18090;SDS011;9172;49.948;9.208;2022-12-07T04:01:19;17.87;;;8.80;;
18090;SDS011;9172;49.948;9.208;2022-12-07T04:03:49;16.10;;;8.70;;
18090;SDS011;9172;49.948;9.208;2022-12-07T04:06:18;14.17;;;7.10;;
18090;SDS011;9172;49.948;9.208;2022-12-07T04:08:47;18.13;;;8.90;;
18090;SDS011;9172;49.948;9.208;2022-12-07T04:11:16;16.33;;;7.87;;
18090;SDS011;9172;49.948;9.208;2022-12-07T04:13:44;15.83;;;7.57;;
18090;SDS011;9172;49.948;9.208;2022-12-07T04:16:31;21.80;;;8.67;;
18090;SDS011;9172;49.948;9.208;2022-12-07T04:19:00;17.40;;;8.60;;
18090;SDS011;9172;49.948;9.208;2022-12-07T04:21:28;16.60;;;8.27;;
18090;SDS011;9172;49.948;9.208;2022-12-07T04:23:59;17.37;;;8.90;;
18090;SDS011;9172;49.948;9.208;2022-12-07T04:26:28;15.40;;;8.13;;
18090;SDS011;9172;49.948;9.208;2022-12-07T04:28:58;17.60;;;8.73;;
18090;SDS011;9172;49.948;9.208;2022-12-07T04:31:28;14.73;;;7.97;;
18090;SDS011;9172;49.948;9.208;2022-12-07T04:33:56;17.13;;;8.67;;
18090;SDS011;9172;49.948;9.208;2022-12-07T04:36:26;17.43;;;8.27;;
18090;SDS011;9172;49.948;9.208;2022-12-07T04:38:56;18.40;;;8.13;;
18090;SDS011;9172;49.948;9.208;2022-12-07T04:41:26;15.03;;;7.67;;
18090;SDS011;9172;49.948;9.208;2022-12-07T04:43:58;14.80;;;7.47;;
18090;SDS011;9172;49.948;9.208;2022-12-07T04:46:28;15.13;;;7.73;;
18090;SDS011;9172;49.948;9.208;2022-12-07T04:48:59;15.47;;;8.33;;
18090;SDS011;9172;49.948;9.208;2022-12-07T04:51:28;15.07;;;7.33;;
18090;SDS011;9172;49.948;9.208;2022-12-07T04:53:58;19.07;;;9.27;;
18090;SDS011;9172;49.948;9.208;2022-12-07T04:56:30;17.13;;;8.37;;
18090;SDS011;9172;49.948;9.208;2022-12-07T04:59:09;13.13;;;6.87;;
18090;SDS011;9172;49.948;9.208;2022-12-07T05:01:38;15.80;;;8.33;;
18090;SDS011;9172;49.948;9.208;2022-12-07T05:04:07;20.33;;;7.70;;
18090;SDS011;9172;49.948;9.208;2022-12-07T05:06:37;14.33;;;7.27;;
18090;SDS011;9172;49.948;9.208;2022-12-07T05:09:06;14.83;;;7.03;;
18090;SDS011;9172;49.948;9.208;2022-12-07T05:11:35;17.80;;;8.30;;
18090;SDS011;9172;49.948;9.208;2022-12-07T05:14:05;16.00;;;8.60;;
18090;SDS011;9172;49.948;9.208;2022-12-07T05:16:36;17.70;;;7.73;;
18090;SDS011;9172;49.948;9.208;2022-12-07T05:19:05;16.47;;;8.17;;
18090;SDS011;9172;49.948;9.208;2022-12-07T05:21:34;18.00;;;8.70;;
18090;SDS011;9172;49.948;9.208;2022-12-07T05:24:05;15.33;;;7.50;;
18090;SDS011;9172;49.948;9.208;2022-12-07T05:26:34;15.67;;;7.80;;
18090;SDS011;9172;49.948;9.208;2022-12-07T05:29:03;16.87;;;8.37;;
18090;SDS011;9172;49.948;9.208;2022-12-07T05:31:32;15.77;;;7.43;;
18090;SDS011;9172;49.948;9.208;2022-12-07T05:34:01;17.63;;;8.70;;
18090;SDS011;9172;49.948;9.208;2022-12-07T05:36:30;15.30;;;7.57;;
18090;SDS011;9172;49.948;9.208;2022-12-07T05:39:01;17.80;;;7.47;;
18090;SDS011;9172;49.948;9.208;2022-12-07T05:41:30;12.97;;;6.50;;
18090;SDS011;9172;49.948;9.208;2022-12-07T05:44:16;15.50;;;7.43;;
18090;SDS011;9172;49.948;9.208;2022-12-07T05:46:48;13.37;;;6.37;;
18090;SDS011;9172;49.948;9.208;2022-12-07T05:49:18;11.83;;;6.23;;
18090;SDS011;9172;49.948;9.208;2022-12-07T05:51:47;15.10;;;6.37;;
18090;SDS011;9172;49.948;9.208;2022-12-07T05:54:16;15.30;;;7.30;;
18090;SDS011;9172;49.948;9.208;2022-12-07T05:56:49;14.93;;;7.83;;
18090;SDS011;9172;49.948;9.208;2022-12-07T05:59:20;12.10;;;6.00;;
18090;SDS011;9172;49.948;9.208;2022-12-07T06:01:49;14.23;;;6.70;;
18090;SDS011;9172;49.948;9.208;2022-12-07T06:04:19;14.23;;;6.90;;
18090;SDS011;9172;49.948;9.208;2022-12-07T06:06:49;13.63;;;5.80;;
18090;SDS011;9172;49.948;9.208;2022-12-07T06:09:18;14.73;;;7.23;;
18090;SDS011;9172;49.948;9.208;2022-12-07T06:11:49;13.63;;;6.37;;
18090;SDS011;9172;49.948;9.208;2022-12-07T06:14:36;12.37;;;6.23;;
18090;SDS011;9172;49.948;9.208;2022-12-07T06:17:06;11.50;;;5.97;;
18090;SDS011;9172;49.948;9.208;2022-12-07T06:19:35;13.47;;;6.10;;
18090;SDS011;9172;49.948;9.208;2022-12-07T06:22:04;12.97;;;6.73;;
18090;SDS011;9172;49.948;9.208;2022-12-07T06:24:33;16.27;;;6.73;;
18090;SDS011;9172;49.948;9.208;2022-12-07T06:27:03;15.83;;;7.10;;
18090;SDS011;9172;49.948;9.208;2022-12-07T06:29:32;14.27;;;6.67;;
18090;SDS011;9172;49.948;9.208;2022-12-07T06:32:01;11.00;;;5.80;;
18090;SDS011;9172;49.948;9.208;2022-12-07T06:34:30;13.20;;;6.80;;
18090;SDS011;9172;49.948;9.208;2022-12-07T06:37:00;13.90;;;6.10;;
18090;SDS011;9172;49.948;9.208;2022-12-07T06:39:29;10.13;;;6.20;;
18090;SDS011;9172;49.948;9.208;2022-12-07T06:41:59;13.80;;;7.10;;
18090;SDS011;9172;49.948;9.208;2022-12-07T06:44:27;14.43;;;6.50;;
18090;SDS011;9172;49.948;9.208;2022-12-07T06:46:56;12.93;;;6.47;;
18090;SDS011;9172;49.948;9.208;2022-12-07T06:49:25;11.83;;;6.20;;
18090;SDS011;9172;49.948;9.208;2022-12-07T06:51:53;12.77;;;6.63;;
18090;SDS011;9172;49.948;9.208;2022-12-07T06:54:22;12.97;;;6.63;;
18090;SDS011;9172;49.948;9.208;2022-12-07T06:56:50;15.60;;;7.37;;
18090;SDS011;9172;49.948;9.208;2022-12-07T06:59:20;14.17;;;7.17;;
18090;SDS011;9172;49.948;9.208;2022-12-07T07:01:48;13.77;;;6.80;;
18090;SDS011;9172;49.948;9.208;2022-12-07T07:04:18;13.90;;;6.43;;
18090;SDS011;9172;49.948;9.208;2022-12-07T07:06:46;14.23;;;7.20;;
18090;SDS011;9172;49.948;9.208;2022-12-07T07:09:16;13.87;;;7.87;;
18090;SDS011;9172;49.948;9.208;2022-12-07T07:11:45;19.27;;;7.67;;
18090;SDS011;9172;49.948;9.208;2022-12-07T07:14:14;12.97;;;6.77;;
18090;SDS011;9172;49.948;9.208;2022-12-07T07:16:44;13.17;;;6.77;;
18090;SDS011;9172;49.948;9.208;2022-12-07T07:19:13;14.50;;;6.93;;
18090;SDS011;9172;49.948;9.208;2022-12-07T07:21:42;14.47;;;7.40;;
18090;SDS011;9172;49.948;9.208;2022-12-07T07:24:11;14.93;;;7.20;;
18090;SDS011;9172;49.948;9.208;2022-12-07T07:26:39;15.83;;;7.67;;
18090;SDS011;9172;49.948;9.208;2022-12-07T07:29:08;12.50;;;6.40;;
18090;SDS011;9172;49.948;9.208;2022-12-07T07:31:37;15.73;;;7.07;;
18090;SDS011;9172;49.948;9.208;2022-12-07T07:34:07;13.90;;;6.97;;
18090;SDS011;9172;49.948;9.208;2022-12-07T07:36:35;15.27;;;7.20;;
18090;SDS011;9172;49.948;9.208;2022-12-07T07:39:09;14.30;;;6.97;;
18090;SDS011;9172;49.948;9.208;2022-12-07T07:41:38;12.87;;;6.73;;
18090;SDS011;9172;49.948;9.208;2022-12-07T07:44:08;12.00;;;6.67;;
18090;SDS011;9172;49.948;9.208;2022-12-07T07:46:37;13.47;;;6.37;;
18090;SDS011;9172;49.948;9.208;2022-12-07T07:49:06;10.67;;;6.10;;
18090;SDS011;9172;49.948;9.208;2022-12-07T07:51:36;17.83;;;8.40;;
18090;SDS011;9172;49.948;9.208;2022-12-07T07:54:05;14.37;;;7.27;;
18090;SDS011;9172;49.948;9.208;2022-12-07T07:56:34;12.43;;;6.63;;
18090;SDS011;9172;49.948;9.208;2022-12-07T07:59:03;14.67;;;7.03;;
18090;SDS011;9172;49.948;9.208;2022-12-07T08:01:32;12.80;;;6.70;;
18090;SDS011;9172;49.948;9.208;2022-12-07T08:04:01;14.97;;;7.07;;
18090;SDS011;9172;49.948;9.208;2022-12-07T08:06:29;13.20;;;6.63;;
18090;SDS011;9172;49.948;9.208;2022-12-07T08:08:58;16.07;;;7.67;;
18090;SDS011;9172;49.948;9.208;2022-12-07T08:11:26;20.73;;;7.87;;
18090;SDS011;9172;49.948;9.208;2022-12-07T08:13:56;14.13;;;6.77;;
18090;SDS011;9172;49.948;9.208;2022-12-07T08:16:25;22.13;;;8.53;;
18090;SDS011;9172;49.948;9.208;2022-12-07T08:18:54;21.00;;;10.80;;
18090;SDS011;9172;49.948;9.208;2022-12-07T08:21:23;18.20;;;9.17;;
18090;SDS011;9172;49.948;9.208;2022-12-07T08:23:51;14.43;;;7.23;;
18090;SDS011;9172;49.948;9.208;2022-12-07T08:26:20;14.17;;;7.50;;
18090;SDS011;9172;49.948;9.208;2022-12-07T08:28:49;16.67;;;7.87;;
18090;SDS011;9172;49.948;9.208;2022-12-07T08:31:19;14.70;;;7.60;;
18090;SDS011;9172;49.948;9.208;2022-12-07T08:33:48;16.47;;;8.70;;
18090;SDS011;9172;49.948;9.208;2022-12-07T08:36:17;12.67;;;7.37;;
18090;SDS011;9172;49.948;9.208;2022-12-07T08:38:45;16.23;;;7.57;;
18090;SDS011;9172;49.948;9.208;2022-12-07T08:41:14;16.23;;;8.50;;
18090;SDS011;9172;49.948;9.208;2022-12-07T08:43:42;15.17;;;8.40;;
18090;SDS011;9172;49.948;9.208;2022-12-07T08:46:12;11.60;;;6.60;;
18090;SDS011;9172;49.948;9.208;2022-12-07T08:48:43;14.33;;;7.27;;
18090;SDS011;9172;49.948;9.208;2022-12-07T08:51:14;15.37;;;7.93;;
18090;SDS011;9172;49.948;9.208;2022-12-07T08:53:43;14.83;;;7.03;;
18090;SDS011;9172;49.948;9.208;2022-12-07T08:56:13;14.50;;;6.97;;
18090;SDS011;9172;49.948;9.208;2022-12-07T08:58:42;15.00;;;7.53;;
18090;SDS011;9172;49.948;9.208;2022-12-07T09:01:12;14.50;;;7.93;;
18090;SDS011;9172;49.948;9.208;2022-12-07T09:03:40;14.80;;;7.17;;
18090;SDS011;9172;49.948;9.208;2022-12-07T09:06:10;13.50;;;7.23;;
18090;SDS011;9172;49.948;9.208;2022-12-07T09:08:40;13.33;;;7.03;;
18090;SDS011;9172;49.948;9.208;2022-12-07T09:11:12;14.73;;;7.63;;
18090;SDS011;9172;49.948;9.208;2022-12-07T09:13:40;13.87;;;7.87;;
18090;SDS011;9172;49.948;9.208;2022-12-07T09:16:10;21.07;;;6.93;;
18090;SDS011;9172;49.948;9.208;2022-12-07T09:18:38;16.20;;;8.20;;
18090;SDS011;9172;49.948;9.208;2022-12-07T09:21:08;17.27;;;8.13;;
18090;SDS011;9172;49.948;9.208;2022-12-07T09:23:36;12.97;;;6.53;;
18090;SDS011;9172;49.948;9.208;2022-12-07T09:26:05;13.63;;;7.70;;
18090;SDS011;9172;49.948;9.208;2022-12-07T09:28:34;13.63;;;7.23;;
18090;SDS011;9172;49.948;9.208;2022-12-07T09:31:03;12.30;;;6.77;;
18090;SDS011;9172;49.948;9.208;2022-12-07T09:33:33;13.00;;;7.63;;
18090;SDS011;9172;49.948;9.208;2022-12-07T09:36:03;18.63;;;8.07;;
18090;SDS011;9172;49.948;9.208;2022-12-07T09:38:32;16.27;;;7.70;;
18090;SDS011;9172;49.948;9.208;2022-12-07T09:41:04;18.00;;;7.53;;
18090;SDS011;9172;49.948;9.208;2022-12-07T09:43:34;13.73;;;7.40;;
18090;SDS011;9172;49.948;9.208;2022-12-07T09:46:05;11.57;;;7.10;;
18090;SDS011;9172;49.948;9.208;2022-12-07T09:48:36;15.73;;;7.93;;
18090;SDS011;9172;49.948;9.208;2022-12-07T09:51:12;12.87;;;6.37;;
18090;SDS011;9172;49.948;9.208;2022-12-07T09:53:42;18.53;;;6.90;;
18090;SDS011;9172;49.948;9.208;2022-12-07T09:56:12;15.70;;;7.67;;
18090;SDS011;9172;49.948;9.208;2022-12-07T09:58:42;12.87;;;6.50;;
18090;SDS011;9172;49.948;9.208;2022-12-07T10:01:12;13.17;;;7.17;;
18090;SDS011;9172;49.948;9.208;2022-12-07T10:03:45;14.23;;;7.90;;
18090;SDS011;9172;49.948;9.208;2022-12-07T10:06:15;15.27;;;7.53;;
18090;SDS011;9172;49.948;9.208;2022-12-07T10:08:44;10.97;;;6.70;;
18090;SDS011;9172;49.948;9.208;2022-12-07T10:11:13;15.93;;;7.93;;
18090;SDS011;9172;49.948;9.208;2022-12-07T10:13:43;12.37;;;6.83;;
18090;SDS011;9172;49.948;9.208;2022-12-07T10:16:30;16.43;;;7.67;;
18090;SDS011;9172;49.948;9.208;2022-12-07T10:19:22;12.90;;;6.83;;
18090;SDS011;9172;49.948;9.208;2022-12-07T10:22:02;14.60;;;7.37;;
18090;SDS011;9172;49.948;9.208;2022-12-07T10:24:35;15.77;;;7.60;;
18090;SDS011;9172;49.948;9.208;2022-12-07T10:27:09;15.83;;;8.10;;
18090;SDS011;9172;49.948;9.208;2022-12-07T10:29:47;13.57;;;7.07;;
18090;SDS011;9172;49.948;9.208;2022-12-07T10:32:31;13.60;;;7.57;;
18090;SDS011;9172;49.948;9.208;2022-12-07T10:35:22;13.33;;;6.67;;
18090;SDS011;9172;49.948;9.208;2022-12-07T10:37:54;13.63;;;7.23;;
18090;SDS011;9172;49.948;9.208;2022-12-07T10:40:32;14.50;;;6.40;;
18090;SDS011;9172;49.948;9.208;2022-12-07T10:43:03;14.63;;;6.53;;
18090;SDS011;9172;49.948;9.208;2022-12-07T10:45:34;17.00;;;8.07;;
18090;SDS011;9172;49.948;9.208;2022-12-07T10:48:06;12.60;;;6.70;;
18090;SDS011;9172;49.948;9.208;2022-12-07T10:50:44;13.60;;;7.30;;
18090;SDS011;9172;49.948;9.208;2022-12-07T10:53:22;16.47;;;7.00;;
18090;SDS011;9172;49.948;9.208;2022-12-07T10:56:18;13.63;;;7.47;;
18090;SDS011;9172;49.948;9.208;2022-12-07T10:58:59;12.73;;;6.93;;
18090;SDS011;9172;49.948;9.208;2022-12-07T11:01:31;15.20;;;6.70;;
18090;SDS011;9172;49.948;9.208;2022-12-07T11:04:13;12.23;;;6.70;;
18090;SDS011;9172;49.948;9.208;2022-12-07T11:06:47;10.90;;;6.30;;
18090;SDS011;9172;49.948;9.208;2022-12-07T11:09:34;12.80;;;6.50;;
18090;SDS011;9172;49.948;9.208;2022-12-07T11:12:09;12.13;;;6.20;;
18090;SDS011;9172;49.948;9.208;2022-12-07T11:14:41;12.73;;;6.73;;
18090;SDS011;9172;49.948;9.208;2022-12-07T11:17:13;12.87;;;6.50;;
18090;SDS011;9172;49.948;9.208;2022-12-07T11:19:48;11.40;;;6.33;;
18090;SDS011;9172;49.948;9.208;2022-12-07T11:22:23;13.27;;;6.20;;
18090;SDS011;9172;49.948;9.208;2022-12-07T11:24:55;10.20;;;6.20;;
18090;SDS011;9172;49.948;9.208;2022-12-07T11:27:30;14.67;;;6.63;;
18090;SDS011;9172;49.948;9.208;2022-12-07T11:33:00;16.03;;;6.70;;
18090;SDS011;9172;49.948;9.208;2022-12-07T11:35:38;13.37;;;6.83;;
18090;SDS011;9172;49.948;9.208;2022-12-07T11:38:13;11.30;;;5.90;;
18090;SDS011;9172;49.948;9.208;2022-12-07T11:40:44;14.03;;;6.37;;
18090;SDS011;9172;49.948;9.208;2022-12-07T11:43:18;12.00;;;6.33;;
18090;SDS011;9172;49.948;9.208;2022-12-07T11:45:51;11.33;;;5.50;;
18090;SDS011;9172;49.948;9.208;2022-12-07T11:48:24;9.57;;;5.37;;
18090;SDS011;9172;49.948;9.208;2022-12-07T11:50:57;8.07;;;4.37;;
18090;SDS011;9172;49.948;9.208;2022-12-07T11:53:29;10.80;;;5.20;;
18090;SDS011;9172;49.948;9.208;2022-12-07T11:56:02;9.23;;;3.97;;
18090;SDS011;9172;49.948;9.208;2022-12-07T11:58:46;10.70;;;4.30;;
18090;SDS011;9172;49.948;9.208;2022-12-07T12:01:26;9.30;;;4.83;;
18090;SDS011;9172;49.948;9.208;2022-12-07T12:04:01;8.93;;;5.30;;
18090;SDS011;9172;49.948;9.208;2022-12-07T12:06:33;11.53;;;5.37;;
18090;SDS011;9172;49.948;9.208;2022-12-07T12:09:03;11.27;;;4.80;;
18090;SDS011;9172;49.948;9.208;2022-12-07T12:11:43;10.20;;;4.80;;
18090;SDS011;9172;49.948;9.208;2022-12-07T12:14:26;9.10;;;4.77;;
18090;SDS011;9172;49.948;9.208;2022-12-07T12:17:07;11.23;;;5.80;;
18090;SDS011;9172;49.948;9.208;2022-12-07T12:19:55;10.20;;;5.67;;
18090;SDS011;9172;49.948;9.208;2022-12-07T12:22:28;12.03;;;5.43;;
18090;SDS011;9172;49.948;9.208;2022-12-07T12:25:00;9.33;;;5.13;;
18090;SDS011;9172;49.948;9.208;2022-12-07T12:27:35;10.07;;;5.60;;
18090;SDS011;9172;49.948;9.208;2022-12-07T12:30:22;10.27;;;5.63;;
18090;SDS011;9172;49.948;9.208;2022-12-07T12:32:52;12.93;;;5.90;;
18090;SDS011;9172;49.948;9.208;2022-12-07T12:35:32;12.20;;;6.17;;
18090;SDS011;9172;49.948;9.208;2022-12-07T12:40:56;11.37;;;5.90;;
18090;SDS011;9172;49.948;9.208;2022-12-07T13:02:09;10.27;;;5.73;;
18090;SDS011;9172;49.948;9.208;2022-12-07T13:04:53;9.57;;;5.20;;
18090;SDS011;9172;49.948;9.208;2022-12-07T13:07:49;12.00;;;5.90;;
18090;SDS011;9172;49.948;9.208;2022-12-07T13:10:40;11.97;;;5.87;;
18090;SDS011;9172;49.948;9.208;2022-12-07T13:25:23;12.93;;;5.97;;
18090;SDS011;9172;49.948;9.208;2022-12-07T13:28:09;13.97;;;6.00;;
18090;SDS011;9172;49.948;9.208;2022-12-07T13:30:43;9.90;;;5.03;;
18090;SDS011;9172;49.948;9.208;2022-12-07T13:33:15;13.40;;;5.70;;
18090;SDS011;9172;49.948;9.208;2022-12-07T13:35:46;15.50;;;5.83;;
18090;SDS011;9172;49.948;9.208;2022-12-07T13:38:22;9.80;;;5.17;;
18090;SDS011;9172;49.948;9.208;2022-12-07T13:41:12;7.83;;;5.00;;
18090;SDS011;9172;49.948;9.208;2022-12-07T13:43:45;10.00;;;4.60;;
18090;SDS011;9172;49.948;9.208;2022-12-07T13:46:17;8.00;;;4.30;;
18090;SDS011;9172;49.948;9.208;2022-12-07T13:48:49;13.10;;;4.50;;
18090;SDS011;9172;49.948;9.208;2022-12-07T13:51:20;6.87;;;4.10;;
18090;SDS011;9172;49.948;9.208;2022-12-07T13:53:59;12.63;;;4.30;;
18090;SDS011;9172;49.948;9.208;2022-12-07T13:56:32;8.50;;;4.17;;
18090;SDS011;9172;49.948;9.208;2022-12-07T13:59:07;8.40;;;4.43;;
18090;SDS011;9172;49.948;9.208;2022-12-07T14:01:40;11.40;;;4.60;;
18090;SDS011;9172;49.948;9.208;2022-12-07T14:04:29;8.03;;;4.57;;
18090;SDS011;9172;49.948;9.208;2022-12-07T14:07:00;9.07;;;4.77;;
18090;SDS011;9172;49.948;9.208;2022-12-07T14:09:52;5.77;;;3.70;;
18090;SDS011;9172;49.948;9.208;2022-12-07T14:12:21;8.70;;;3.63;;
18090;SDS011;9172;49.948;9.208;2022-12-07T14:14:50;7.13;;;3.33;;
18090;SDS011;9172;49.948;9.208;2022-12-07T14:17:20;7.70;;;3.83;;
18090;SDS011;9172;49.948;9.208;2022-12-07T14:19:51;6.23;;;3.40;;
18090;SDS011;9172;49.948;9.208;2022-12-07T14:22:27;10.20;;;4.10;;
18090;SDS011;9172;49.948;9.208;2022-12-07T14:25:15;6.87;;;3.93;;
18090;SDS011;9172;49.948;9.208;2022-12-07T14:27:53;6.97;;;3.70;;
18090;SDS011;9172;49.948;9.208;2022-12-07T14:30:24;8.30;;;4.20;;
18090;SDS011;9172;49.948;9.208;2022-12-07T14:32:57;7.17;;;3.30;;
18090;SDS011;9172;49.948;9.208;2022-12-07T14:35:27;9.30;;;4.10;;
18090;SDS011;9172;49.948;9.208;2022-12-07T14:37:57;13.07;;;4.70;;
18090;SDS011;9172;49.948;9.208;2022-12-07T14:40:26;9.77;;;4.47;;
18090;SDS011;9172;49.948;9.208;2022-12-07T14:42:59;10.63;;;4.73;;
18090;SDS011;9172;49.948;9.208;2022-12-07T14:45:29;9.33;;;3.87;;
18090;SDS011;9172;49.948;9.208;2022-12-07T14:47:58;9.83;;;4.50;;
18090;SDS011;9172;49.948;9.208;2022-12-07T14:50:27;7.23;;;3.70;;
18090;SDS011;9172;49.948;9.208;2022-12-07T14:52:58;11.47;;;4.30;;
18090;SDS011;9172;49.948;9.208;2022-12-07T14:58:08;6.73;;;3.17;;
18090;SDS011;9172;49.948;9.208;2022-12-07T15:00:40;7.47;;;3.73;;
18090;SDS011;9172;49.948;9.208;2022-12-07T15:03:13;6.20;;;2.80;;
18090;SDS011;9172;49.948;9.208;2022-12-07T15:05:43;5.10;;;2.90;;
18090;SDS011;9172;49.948;9.208;2022-12-07T15:08:12;6.60;;;2.67;;
18090;SDS011;9172;49.948;9.208;2022-12-07T15:10:46;10.10;;;3.43;;
18090;SDS011;9172;49.948;9.208;2022-12-07T15:13:15;8.87;;;3.53;;
18090;SDS011;9172;49.948;9.208;2022-12-07T15:16:02;10.10;;;3.10;;
18090;SDS011;9172;49.948;9.208;2022-12-07T15:18:32;8.83;;;2.87;;
18090;SDS011;9172;49.948;9.208;2022-12-07T15:21:00;6.30;;;3.30;;
18090;SDS011;9172;49.948;9.208;2022-12-07T15:23:30;5.73;;;3.13;;
18090;SDS011;9172;49.948;9.208;2022-12-07T15:25:59;5.90;;;3.20;;
18090;SDS011;9172;49.948;9.208;2022-12-07T15:28:28;6.43;;;3.13;;
18090;SDS011;9172;49.948;9.208;2022-12-07T15:30:56;4.63;;;2.77;;
18090;SDS011;9172;49.948;9.208;2022-12-07T15:33:28;7.03;;;3.50;;
18090;SDS011;9172;49.948;9.208;2022-12-07T15:35:58;12.67;;;4.97;;
18090;SDS011;9172;49.948;9.208;2022-12-07T15:38:27;9.70;;;4.33;;
18090;SDS011;9172;49.948;9.208;2022-12-07T15:40:56;8.27;;;4.07;;
18090;SDS011;9172;49.948;9.208;2022-12-07T15:43:26;8.60;;;3.53;;
18090;SDS011;9172;49.948;9.208;2022-12-07T15:46:12;6.37;;;2.73;;
18090;SDS011;9172;49.948;9.208;2022-12-07T15:48:42;5.33;;;2.47;;
18090;SDS011;9172;49.948;9.208;2022-12-07T15:51:12;4.97;;;2.70;;
18090;SDS011;9172;49.948;9.208;2022-12-07T15:53:41;7.33;;;3.03;;
18090;SDS011;9172;49.948;9.208;2022-12-07T15:56:18;7.20;;;3.23;;
18090;SDS011;9172;49.948;9.208;2022-12-07T15:58:47;6.43;;;2.97;;
18090;SDS011;9172;49.948;9.208;2022-12-07T16:01:17;5.03;;;2.40;;
18090;SDS011;9172;49.948;9.208;2022-12-07T16:03:47;4.57;;;2.50;;